Terminal Aerodrome Forecast
Issued by NWS Pueblo, CO

Home | Current Version | Previous Version | Text Only | Print | Product List | Glossary On
Versions: 1 2 3 4 5 6 7 8 9 10 11 12 13 14 15 16 17
000
FTUS45 KPUB 281135
TAFALS
TAF
KALS 281135Z 2812/2912 VRB06KT P6SM FEW020 BKN140
     FM281900 18007KT P6SM VCTS SCT060CB BKN100 PROB30 2822/2902
      VRB15G30KT 5SM -TSRA BKN040CB
     FM290300 35008KT P6SM VCSH SCT050 BKN100
     FM290600 VRB06KT P6SM SCT030 BKN080=

USA.gov is the U.S. government's official web portal to all federal, state and local government web resources and services.